Aviation Digital Data Service (ADDS)

Output produced by METARs form (1845 UTC 27 July 2017)
found at http://aviationweather.gov/adds/metars/
 
KACY 271731Z 2718/2818 18010KT P6SM SCT025 OVC035 
     FM280300 VRB04KT P6SM BKN150 BKN250 
     FM280700 VRB03KT P6SM SCT025 OVC050 
     FM281000 VRB03KT 3SM BR BKN008 OVC015 
     FM281500 VRB05KT 4SM -SHRA BR BKN008 OVC015